Here is the Quick Look data you requested

The Data originates at the National Weather Service, and is made available here by the UAlbany Department of Atmospheric and Environmental Sciences

Surface Observations

KESN 240445Z AUTO 00000KT 10SM FEW150 21/19 A2989 RMK AO2 T02120191=
KESN 240505Z AUTO 00000KT 10SM BKN140 21/19 A2989 RMK AO2 T02100191=
KESN 240525Z AUTO 00000KT 10SM BKN140 21/19 A2988 RMK AO2 T02080192=
KESN 240545Z AUTO 00000KT 10SM CLR 21/19 A2988 RMK AO2 T02080193=
KESN 240605Z AUTO 14003KT 10SM CLR 20/19 A2987 RMK AO2 T02030191=
KESN 240625Z AUTO 00000KT 10SM CLR 20/19 A2987 RMK AO2 T02010190=
KESN 240645Z AUTO 00000KT 10SM CLR 20/19 A2987 RMK AO2 T02020190=
KESN 240705Z AUTO 00000KT 10SM CLR 20/19 A2986 RMK AO2 T01990188=
KESN 240725Z AUTO 00000KT 10SM CLR 20/19 A2986 RMK AO2 T02000190=
KESN 240745Z AUTO 00000KT 10SM CLR 20/19 A2986 RMK AO2 T02000191=
KESN 240805Z AUTO 00000KT 10SM CLR 20/19 A2985 RMK AO2 T01990190=
KESN 240825Z AUTO 00000KT 10SM CLR 20/19 A2985 RMK AO2 T01960190=
KESN 240845Z AUTO 00000KT 10SM CLR 19/19 A2985 RMK AO2 T01920188=
KESN 240905Z AUTO 00000KT 10SM SCT060 19/19 A2985 RMK AO2 T01950190=
KESN 240925Z AUTO 00000KT 9SM SCT060 20/19 A2985 RMK AO2 T01980192=
KESN 240950Z 00000KT 10SM FEW060 20/19 A2986=
KESN 240945Z AUTO 00000KT 9SM FEW060 20/19 A2986 RMK AO2 T01980190=
KESN 240950Z 00000KT 10SM FEW060 20/19 A2986=
KESN 241045Z 00000KT 10SM BKN050 20/20 A2988=
KESN 241145Z 00000KT 8SM BKN025 BKN042 BKN050 21/21 A2989=
KESN 241219Z 00000KT 8SM SCT26 BKN050 22/21 A2988=
KESN 241245Z 07003KT 10SM CLR 23/21 A2988=
KESN 241345Z 07007KT 10SM FEW050 24/21 A2989=
KESN 241450Z 11003KT 10SM SCT065 26/20 A2988=
KESN 241550Z 09007KT 10SM CLR 27/18 A2988=
KESN 241645Z 09008KT 10SM CLR 27/19 A2987=
KESN 241745Z 12007KT 5SM HZ SCT070 27/17 A2985=
KESN 241850Z 16009KT 10SM FEW310 26/19 A2985=
KESN 241950Z 12003KT 10SM FEW370 26/17 A2984=
KESN 242050Z 12003KT 10SM CLR 27/17 A2983=
KESN 242150Z 00000KT 10SM CLR 27/17 A2983=
KESN 242245Z 25004KT 10SM CLR 27/19 A2983=
KESN 242345Z 20005KT 10SM CLR 26/20 A2982=
KESN 250045Z 23004KT 10SM CLR 23/19 A2982=
KESN 250145Z 00000KT 10SM CLR 22/19 A2985=
KESN 250205Z AUTO 00000KT 10SM CLR 21/19 A2986 RMK AO2 T02110187=
KESN 250225Z AUTO 16004KT 10SM CLR 21/19 A2987 RMK AO2 T02080191=
KESN 250245Z AUTO 18003KT 10SM CLR 21/20 A2987 RMK AO2 T02140196=
KESN 250305Z AUTO 20003KT 10SM CLR 21/20 A2987 RMK AO2 T02140198=
KESN 250325Z AUTO VRB03KT 10SM CLR 21/20 A2987 RMK AO2 T02090198=
KESN 250345Z AUTO 00000KT 10SM CLR 21/20 A2987 RMK AO2 T02050196=
KESN 250405Z AUTO 00000KT 10SM CLR 20/19 A2987 RMK AO2 T01990194=
KESN 250425Z AUTO 00000KT 8SM CLR 19/19 A2987 RMK AO2 T01940191=
KESN 250445Z AUTO 00000KT 8SM CLR 20/19 A2987 RMK AO2 T01950192=
KESN 250505Z AUTO 00000KT 8SM CLR 20/19 A2987 RMK AO2 T01980194=
KESN 250525Z AUTO 24003KT 6SM BR CLR 20/20 A2986 RMK AO2 T02000198=
KESN 250545Z AUTO 00000KT 5SM BR CLR 20/20 A2986 RMK AO2 T02010201=
KESN 250605Z AUTO 00000KT 4SM BR CLR 20/20 A2985 RMK AO2 T01990199=
KESN 250625Z AUTO 00000KT 4SM BR CLR 20/20 A2985 RMK AO2 T02000200=
KESN 250645Z AUTO 00000KT 3/4SM BR CLR 19/19 A2985 RMK AO2 T01890189=
KESN 250705Z AUTO 00000KT 3SM BR CLR 19/19 A2984 RMK AO2 T01880188=
KESN 250725Z AUTO 00000KT 1/4SM FG CLR 19/19 A2985 RMK AO2 T01880188=
KESN 250745Z AUTO 00000KT 3/4SM BR CLR 19/19 A2984 RMK AO2 VIS 1/2V4 T01860186=
KESN 250805Z AUTO 00000KT 4SM BR CLR 18/18 A2984 RMK AO2 T01820182=
KESN 250825Z AUTO 00000KT 1/4SM FG CLR 18/18 A2984 RMK AO2 T01850185=
KESN 250845Z AUTO 03003KT 1/4SM FG CLR 18/18 A2984 RMK AO2 T01800180=
KESN 250905Z AUTO 00000KT 2SM BR CLR 18/18 A2984 RMK AO2 VIS 1/2V5 T01770177=
KESN 250925Z AUTO 00000KT 1/4SM FG CLR 18/18 A2984 RMK AO2 T01770177=
KESN 250945Z AUTO 00000KT 1/4SM FG CLR 18/18 A2985 RMK AO2 T01760176=
KESN 250952Z 00000KT 1/4SM FG BKN010 17/17 A2985=
KESN 250945Z AUTO 00000KT 1/4SM FG CLR 18/18 A2985 RMK AO2 T01760176=
KESN 250952Z 00000KT 1/4SM FG BKN010 17/17 A2985=
KESN 251056Z 00000KT 5SM BR SCT080 18/18 A2986=